Alakanuk, Alaska
Current Conditions -  °F | °C
As of 4:16 AM on Saturday 25 Oct 2014 (Local Time) from PAEM Reporting Station
Overcast Overcast  
Wind Chill: 23°   Ceiling: 7500
Heat Index: 34°   Visibility: 10mi
Dew Point: 28°   Wind: 18mph
Humidity: 81%   Direction: 170°S
Pressure: 29.69"   Gusts: 25mph
Location:  62.69°N, 164.62°W
Report Text: PAEM 251216Z 17016G22KT 10SM OVC075 01/M02 A2969 RMK AO1
Loading
Personal Weather Stations






























Interactive Weather Map New forecast layout! Learn more

10-Day Weather Forecast

Advertisements
Track Severe Weather on mobile